M I D A S
Marine Information and Data Acquisition System
Tripno 366 of the Zeeleeuw from 2002-11-27 07:43:24 to 2002-11-27 13:54:14
Back to CruiseResearch ActivitiesStationsMapUnderway DataData graphs

EquipmentUnitsComments
TimeDGPSUTC
LatitudeDGPSDM.mWGS84
LongitudeDGPSDM.mWGS84
SpeedMeteo Stationm/sRelative wind speed
DirectionMeteo StationdegRelative wind direction
TemperatureMeteo Stationdeg CelciusAir temperature
PressureMeteo StationPaAtmospheric pressure
HumidityMeteo Station%Relative humidity
Missing or incorrect values are displayed as -999
Metereological data collected by the RV Zeeleeuw from 2002-11-27 07:43:24 to 2002-11-27 13:54:14
                                                                                    Next 1000 lines
Time Latitude Longitude Speed Direction Temperature Pressure Humidity
2002-11-27 07:43:34 51°13.587 2°56.13 4.2 207 4.2 101350 92
2002-11-27 07:43:39 51°13.587 2°56.129 4.2 201 4.2 101350 92
2002-11-27 07:43:43 51°13.588 2°56.127 5 205 4.2 101350 92
2002-11-27 07:43:48 51°13.589 2°56.125 4.8 212 4.2 101350 92
2002-11-27 07:43:54 51°13.589 2°56.122 4.5 199 4.2 101350 92
2002-11-27 07:43:58 51°13.59 2°56.12 4.5 199 4.2 101350 92
2002-11-27 07:44:04 51°13.591 2°56.116 3.9 207 4.2 101350 92
2002-11-27 07:44:10 51°13.593 2°56.111 4.4 208 4.2 101350 92
2002-11-27 07:44:14 51°13.594 2°56.108 4 198 4.2 101350 92
2002-11-27 07:44:20 51°13.595 2°56.103 3.7 195 4.2 101350 92
2002-11-27 07:44:24 51°13.596 2°56.099 3.6 203 4.2 101350 92
2002-11-27 07:44:28 51°13.597 2°56.095 4.2 210 4.2 101350 92
2002-11-27 07:44:34 51°13.599 2°56.089 3.8 200 4.2 101350 92
2002-11-27 07:44:39 51°13.6 2°56.084 4 203 4.2 101360 92
2002-11-27 07:44:44 51°13.602 2°56.079 5.2 199 4.2 101360 92
2002-11-27 07:44:48 51°13.603 2°56.074 4.1 187 4.2 101350 92
2002-11-27 07:44:54 51°13.604 2°56.069 4 203 4.2 101350 92
2002-11-27 07:44:59 51°13.605 2°56.065 3.5 186 4.2 101350 92
2002-11-27 07:45:04 51°13.605 2°56.061 2.6 186 4.2 101350 92
2002-11-27 07:45:08 51°13.606 2°56.059 4.5 194 4.2 101350 92
2002-11-27 07:45:12 51°13.607 2°56.057 4.9 200 4.2 101350 92
2002-11-27 07:45:18 51°13.607 2°56.055 4.6 197 4.2 101350 92
2002-11-27 07:45:24 51°13.608 2°56.055 4 198 4.2 101350 92
2002-11-27 07:45:28 51°13.608 2°56.054 5.4 196 4.2 101350 92
2002-11-27 07:45:33 51°13.608 2°56.054 4.7 218 4.2 101350 92
2002-11-27 07:45:38 51°13.609 2°56.053 4 210 4.2 101350 92
2002-11-27 07:45:43 51°13.609 2°56.052 5.4 218 4.2 101350 92
2002-11-27 07:45:48 51°13.61 2°56.051 4.4 210 4.2 101350 92
2002-11-27 07:45:54 51°13.61 2°56.049 4 204 4.2 101350 92
2002-11-27 07:45:59 51°13.611 2°56.046 3.8 214 4.2 101350 92
2002-11-27 07:46:04 51°13.612 2°56.044 4 215 4.2 101350 92
2002-11-27 07:46:08 51°13.613 2°56.041 3.8 210 4.2 101350 92
2002-11-27 07:46:14 51°13.614 2°56.037 3.9 201 4.2 101350 92
2002-11-27 07:46:19 51°13.615 2°56.033 4 211 4.2 101350 92
2002-11-27 07:46:24 51°13.616 2°56.029 3.8 215 4.2 101350 92
2002-11-27 07:46:30 51°13.618 2°56.024 4.3 204 4.2 101360 92
2002-11-27 07:46:34 51°13.619 2°56.02 3.3 214 4.2 101360 92
2002-11-27 07:46:39 51°13.621 2°56.015 3.5 219 4.2 101350 92
2002-11-27 07:46:44 51°13.622 2°56.01 4.4 209 4.2 101350 92
2002-11-27 07:46:48 51°13.624 2°56.005 4.3 199 4.2 101360 92
2002-11-27 07:46:54 51°13.626 2°55.998 3.3 205 4.2 101360 92
2002-11-27 07:46:59 51°13.628 2°55.993 3.8 200 4.2 101350 92
2002-11-27 07:47:04 51°13.631 2°55.986 3.5 200 4.2 101350 92
2002-11-27 07:47:09 51°13.633 2°55.98 2.8 212 4.2 101350 92
2002-11-27 07:47:14 51°13.635 2°55.974 2.7 214 4.2 101350 92
2002-11-27 07:47:19 51°13.638 2°55.967 2.7 214 4.2 101360 92
2002-11-27 07:47:24 51°13.64 2°55.961 3.2 213 4.2 101360 92
2002-11-27 07:47:30 51°13.643 2°55.952 3.1 213 4.2 101360 92
2002-11-27 07:47:34 51°13.645 2°55.947 3.7 198 4.2 101350 92
2002-11-27 07:47:39 51°13.648 2°55.939 2.7 204 4.2 101360 92
2002-11-27 07:47:44 51°13.651 2°55.932 2.3 195 4.2 101360 92
2002-11-27 07:47:50 51°13.654 2°55.923 2 174 4.2 101360 92
2002-11-27 07:47:55 51°13.657 2°55.916 3.3 174 4.2 101360 92
2002-11-27 07:47:59 51°13.659 2°55.909 3.8 192 4.2 101360 92
2002-11-27 07:48:05 51°13.662 2°55.9 3 184 4.2 101360 92
2002-11-27 07:48:08 51°13.664 2°55.896 1.3 192 4.2 101350 92
2002-11-27 07:48:15 51°13.667 2°55.885 3.5 190 4.2 101350 92
2002-11-27 07:48:19 51°13.669 2°55.879 3.4 175 4.2 101360 92
2002-11-27 07:48:24 51°13.671 2°55.871 2.5 189 4.2 101360 92
2002-11-27 07:48:30 51°13.673 2°55.862 2.9 180 4.2 101360 92
2002-11-27 07:48:35 51°13.675 2°55.854 2.9 186 4.2 101360 92
2002-11-27 07:48:40 51°13.677 2°55.846 3.2 182 4.2 101360 92
2002-11-27 07:48:44 51°13.678 2°55.84 3.7 179 4.2 101360 92
2002-11-27 07:48:50 51°13.679 2°55.831 2.8 179 4.2 101350 92
2002-11-27 07:48:55 51°13.681 2°55.823 2.8 163 4.2 101350 92
2002-11-27 07:48:59 51°13.682 2°55.817 2.8 139 4.2 101360 92
2002-11-27 07:49:05 51°13.683 2°55.807 2.7 151 4.2 101360 92
2002-11-27 07:49:08 51°13.683 2°55.803 2.2 149 4.2 101360 92
2002-11-27 07:49:15 51°13.685 2°55.792 2.6 149 4.2 101360 92
2002-11-27 07:49:19 51°13.685 2°55.785 4.1 167 4.2 101360 92
2002-11-27 07:49:24 51°13.686 2°55.777 5 133 4.2 101360 92
2002-11-27 07:49:30 51°13.686 2°55.768 3.5 156 4.2 101360 92
2002-11-27 07:49:35 51°13.687 2°55.76 3.4 137 4.2 101360 92
2002-11-27 07:49:39 51°13.687 2°55.754 3.3 120 4.2 101360 92
2002-11-27 07:49:44 51°13.687 2°55.747 3.9 138 4.2 101360 92
2002-11-27 07:49:50 51°13.687 2°55.74 3.7 117 4.2 101360 92
2002-11-27 07:49:54 51°13.687 2°55.736 2.4 148 4.2 101360 92
2002-11-27 07:49:59 51°13.687 2°55.731 3.6 140 4.2 101360 92
2002-11-27 07:50:04 51°13.686 2°55.729 4 140 4.2 101360 92
2002-11-27 07:50:08 51°13.686 2°55.727 3.6 138 4.2 101360 92
2002-11-27 07:50:14 51°13.686 2°55.725 3 139 4.2 101360 92
2002-11-27 07:50:19 51°13.687 2°55.725 4.5 127 4.2 101360 92
2002-11-27 07:50:24 51°13.687 2°55.725 5.3 130 4.2 101360 92
2002-11-27 07:50:29 51°13.688 2°55.725 3.8 109 4.2 101360 92
2002-11-27 07:50:34 51°13.689 2°55.726 3.9 135 4.2 101360 92
2002-11-27 07:50:39 51°13.691 2°55.727 3.1 113 4.2 101360 92
2002-11-27 07:50:44 51°13.692 2°55.728 3.3 90 4.2 101360 92
2002-11-27 07:50:48 51°13.694 2°55.729 3 131 4.2 101360 92
2002-11-27 07:50:53 51°13.696 2°55.73 4 133 4.2 101360 92
2002-11-27 07:50:59 51°13.699 2°55.731 3.9 124 4.2 101360 92
2002-11-27 07:51:04 51°13.703 2°55.732 3.4 107 4.2 101360 92
2002-11-27 07:51:08 51°13.705 2°55.732 2.9 91 4.2 101360 92
2002-11-27 07:51:14 51°13.71 2°55.732 3 99 4.2 101360 92
2002-11-27 07:51:19 51°13.714 2°55.73 2.8 81 4.1 101360 92
2002-11-27 07:51:24 51°13.719 2°55.728 2.1 54 4.1 101360 92
2002-11-27 07:51:28 51°13.723 2°55.726 1.5 318 4.1 101360 92
2002-11-27 07:51:34 51°13.729 2°55.722 2.7 45 4.1 101360 92
2002-11-27 07:51:39 51°13.734 2°55.717 2.4 35 4.1 101360 92
2002-11-27 07:51:44 51°13.74 2°55.712 3.3 66 4.1 101360 92
2002-11-27 07:51:48 51°13.745 2°55.708 2.6 319 4.2 101360 92
2002-11-27 07:51:52 51°13.75 2°55.704 2.1 47 4.2 101360 92
2002-11-27 07:51:59 51°13.759 2°55.695 2.1 48 4.2 101370 92
2002-11-27 07:52:04 51°13.766 2°55.689 1.8 46 4.2 101370 92
2002-11-27 07:52:08 51°13.772 2°55.685 1 51 4.2 101360 92
2002-11-27 07:52:14 51°13.781 2°55.677 1.2 66 4.2 101360 92
2002-11-27 07:52:19 51°13.789 2°55.671 2.2 71 4.2 101360 92
2002-11-27 07:52:24 51°13.797 2°55.664 1.8 74 4.2 101360 92
2002-11-27 07:52:28 51°13.804 2°55.659 1.7 93 4.2 101360 92
2002-11-27 07:52:33 51°13.813 2°55.652 1.7 65 4.2 101360 92
2002-11-27 07:52:39 51°13.824 2°55.645 1.7 61 4.2 101360 92
2002-11-27 07:52:44 51°13.833 2°55.639 1 72 4.2 101360 92
2002-11-27 07:52:48 51°13.841 2°55.634 1.1 69 4.2 101370 92
2002-11-27 07:52:54 51°13.853 2°55.627 1.7 65 4.2 101370 92
2002-11-27 07:52:59 51°13.863 2°55.621 1.4 79 4.2 101370 92
2002-11-27 07:53:04 51°13.873 2°55.614 1.4 84 4.2 101370 92
2002-11-27 07:53:08 51°13.882 2°55.61 1.3 79 4.2 101370 92
2002-11-27 07:53:14 51°13.895 2°55.603 0.9 96 4.2 101370 92
2002-11-27 07:53:19 51°13.905 2°55.597 0.6 109 4.2 101370 92
2002-11-27 07:53:24 51°13.916 2°55.592 0.7 125 4.2 101370 92
2002-11-27 07:53:28 51°13.925 2°55.587 0.5 136 4.2 101370 92
2002-11-27 07:53:34 51°13.938 2°55.579 0.1 148 4.2 101370 92
2002-11-27 07:53:39 51°13.949 2°55.573 0.2 130 4.2 101370 92
2002-11-27 07:53:44 51°13.961 2°55.567 0.6 123 4.2 101370 92
2002-11-27 07:53:48 51°13.969 2°55.562 0.6 112 4.2 101370 92
2002-11-27 07:53:54 51°13.983 2°55.554 1.4 132 4.2 101370 92
2002-11-27 07:53:59 51°13.994 2°55.547 1.2 151 4.2 101370 92
2002-11-27 07:54:04 51°14.005 2°55.541 0.9 119 4.2 101370 92
2002-11-27 07:54:08 51°14.014 2°55.535 1.1 120 4.3 101370 92
2002-11-27 07:54:14 51°14.028 2°55.527 0.9 87 4.3 101370 92
2002-11-27 07:54:19 51°14.039 2°55.519 2.2 97 4.3 101370 92
2002-11-27 07:54:24 51°14.05 2°55.511 1.9 78 4.3 101370 92
2002-11-27 07:54:29 51°14.061 2°55.502 2.2 76 4.3 101370 92
2002-11-27 07:54:34 51°14.071 2°55.493 1.6 59 4.3 101370 92
2002-11-27 07:54:39 51°14.082 2°55.483 1.7 63 4.3 101370 92
2002-11-27 07:54:44 51°14.093 2°55.473 1.6 64 4.3 101370 92
2002-11-27 07:54:48 51°14.101 2°55.465 1.4 74 4.3 101370 92
2002-11-27 07:54:54 51°14.114 2°55.453 1.2 90 4.3 101370 92
2002-11-27 07:54:59 51°14.125 2°55.443 1.2 98 4.3 101370 92
2002-11-27 07:55:04 51°14.135 2°55.432 1.1 73 4.3 101370 92
2002-11-27 07:55:08 51°14.144 2°55.424 1.6 62 4.3 101370 92
2002-11-27 07:55:14 51°14.157 2°55.411 0.9 360 4.3 101370 92
2002-11-27 07:55:18 51°14.165 2°55.402 1.7 34 4.3 101370 92
2002-11-27 07:55:24 51°14.178 2°55.387 1.1 12 4.3 101370 92
2002-11-27 07:55:28 51°14.187 2°55.377 1.2 15 4.3 101370 92
2002-11-27 07:55:34 51°14.199 2°55.362 1.4 1 4.3 101370 92
2002-11-27 07:55:39 51°14.209 2°55.349 1.2 4 4.3 101370 92
2002-11-27 07:55:44 51°14.219 2°55.335 0.7 4 4.3 101370 92
2002-11-27 07:55:48 51°14.227 2°55.323 0.8 349 4.3 101370 92
2002-11-27 07:55:52 51°14.235 2°55.312 1.1 3 4.3 101370 92
2002-11-27 07:55:59 51°14.248 2°55.291 1.2 344 4.3 101370 92
2002-11-27 07:56:04 51°14.257 2°55.275 1.3 359 4.3 101370 92
2002-11-27 07:56:08 51°14.265 2°55.263 0.8 355 4.3 101370 92
2002-11-27 07:56:14 51°14.276 2°55.244 1.3 2 4.3 101370 92
2002-11-27 07:56:19 51°14.285 2°55.229 1 348 4.4 101370 92
2002-11-27 07:56:24 51°14.294 2°55.212 1.9 354 4.4 101370 92
2002-11-27 07:56:29 51°14.303 2°55.196 1.2 3 4.4 101370 92
2002-11-27 07:56:34 51°14.312 2°55.179 1.6 354 4.4 101370 92
2002-11-27 07:56:39 51°14.321 2°55.162 0.8 352 4.4 101370 92
2002-11-27 07:56:44 51°14.33 2°55.144 1.1 356 4.4 101370 92
2002-11-27 07:56:48 51°14.337 2°55.13 0.8 353 4.4 101370 92
2002-11-27 07:56:54 51°14.348 2°55.109 1.4 270 4.4 101370 92
2002-11-27 07:56:59 51°14.357 2°55.092 1.7 289 4.4 101370 92
2002-11-27 07:57:04 51°14.367 2°55.076 1.7 292 4.4 101370 92
2002-11-27 07:57:08 51°14.376 2°55.063 1.5 300 4.4 101370 92
2002-11-27 07:57:14 51°14.389 2°55.044 1.3 268 4.4 101370 92
2002-11-27 07:57:19 51°14.4 2°55.029 1.1 246 4.4 101370 92
2002-11-27 07:57:24 51°14.413 2°55.015 1 229 4.4 101370 92
2002-11-27 07:57:28 51°14.423 2°55.003 1.2 222 4.4 101370 92
2002-11-27 07:57:34 51°14.439 2°54.987 0.6 222 4.4 101370 92
2002-11-27 07:57:39 51°14.453 2°54.973 0.6 213 4.4 101370 92
2002-11-27 07:57:44 51°14.467 2°54.96 0.6 204 4.4 101370 92
2002-11-27 07:57:48 51°14.479 2°54.95 0.9 219 4.4 101370 92
2002-11-27 07:57:54 51°14.496 2°54.934 1 228 4.4 101370 92
2002-11-27 07:57:59 51°14.511 2°54.921 0.8 239 4.4 101370 92
2002-11-27 07:58:04 51°14.526 2°54.908 1.1 230 4.4 101370 92
2002-11-27 07:58:08 51°14.538 2°54.897 0.3 231 4.4 101360 92
2002-11-27 07:58:14 51°14.557 2°54.88 0.4 201 4.4 101360 92
2002-11-27 07:58:19 51°14.572 2°54.866 0.2 204 4.4 101370 92
2002-11-27 07:58:24 51°14.587 2°54.852 1 235 4.4 101370 92
2002-11-27 07:58:28 51°14.599 2°54.841 1.3 239 4.4 101370 92
2002-11-27 07:58:34 51°14.618 2°54.824 1.4 175 4.4 101370 92
2002-11-27 07:58:39 51°14.634 2°54.81 1.4 159 4.4 101360 92
2002-11-27 07:58:44 51°14.65 2°54.796 1 168 4.4 101360 92
2002-11-27 07:58:48 51°14.662 2°54.784 0.7 180 4.5 101370 92
2002-11-27 07:58:54 51°14.681 2°54.767 0.5 207 4.5 101370 92
2002-11-27 07:58:59 51°14.696 2°54.752 0.4 218 4.5 101360 92
2002-11-27 07:59:04 51°14.712 2°54.738 0.3 218 4.5 101360 92
2002-11-27 07:59:08 51°14.724 2°54.726 0.4 208 4.4 101370 92
2002-11-27 07:59:14 51°14.744 2°54.709 0.6 195 4.4 101370 92
2002-11-27 07:59:19 51°14.76 2°54.696 1.4 181 4.5 101360 92
2002-11-27 07:59:24 51°14.775 2°54.681 1.2 200 4.5 101360 92
2002-11-27 07:59:28 51°14.788 2°54.67 1.7 155 4.5 101360 92
2002-11-27 07:59:33 51°14.804 2°54.656 1.3 134 4.5 101360 92
2002-11-27 07:59:39 51°14.824 2°54.639 1.6 141 4.5 101360 92
2002-11-27 07:59:44 51°14.84 2°54.625 1.2 137 4.5 101360 92
2002-11-27 07:59:48 51°14.853 2°54.613 1.2 151 4.5 101360 92
2002-11-27 07:59:54 51°14.873 2°54.596 1 156 4.5 101360 92
2002-11-27 07:59:59 51°14.889 2°54.581 1 168 4.5 101360 92
2002-11-27 08:00:04 51°14.905 2°54.566 0.9 156 4.5 101360 92
2002-11-27 08:00:08 51°14.919 2°54.555 1.2 141 4.6 101360 92
2002-11-27 08:00:14 51°14.938 2°54.537 1 148 4.6 101360 92
2002-11-27 08:00:19 51°14.955 2°54.522 0.8 153 4.6 101360 92
2002-11-27 08:00:24 51°14.971 2°54.508 1.1 118 4.6 101360 92
2002-11-27 08:00:28 51°14.984 2°54.496 1.5 129 4.6 101360 92
2002-11-27 08:00:34 51°15.004 2°54.478 1.6 116 4.6 101360 92
2002-11-27 08:00:39 51°15.02 2°54.463 1.5 130 4.6 101360 92
2002-11-27 08:00:44 51°15.036 2°54.449 1.7 126 4.6 101360 92
2002-11-27 08:00:48 51°15.049 2°54.437 1.6 137 4.6 101360 92
2002-11-27 08:00:54 51°15.069 2°54.42 1.5 122 4.6 101360 92
2002-11-27 08:00:59 51°15.085 2°54.405 1.5 125 4.6 101360 92
2002-11-27 08:01:03 51°15.098 2°54.394 1.3 126 4.6 101360 92
2002-11-27 08:01:08 51°15.115 2°54.379 1.4 109 4.6 101360 92
2002-11-27 08:01:14 51°15.135 2°54.362 1.3 111 4.6 101360 92
2002-11-27 08:01:19 51°15.151 2°54.347 0.8 83 4.6 101360 92
2002-11-27 08:01:24 51°15.168 2°54.332 0.7 200 4.6 101360 92
2002-11-27 08:01:28 51°15.181 2°54.32 0.7 155 4.6 101360 92
2002-11-27 08:01:34 51°15.201 2°54.302 1.1 154 4.6 101360 92
2002-11-27 08:01:39 51°15.218 2°54.288 1.2 174 4.6 101360 92
2002-11-27 08:01:44 51°15.234 2°54.273 1.2 154 4.6 101360 92
2002-11-27 08:01:48 51°15.247 2°54.261 1.3 119 4.6 101360 92
2002-11-27 08:01:54 51°15.267 2°54.243 0.7 125 4.6 101360 92
2002-11-27 08:01:59 51°15.285 2°54.228 1.1 154 4.6 101360 92
2002-11-27 08:02:04 51°15.301 2°54.213 1.9 167 4.6 101360 92
2002-11-27 08:02:08 51°15.314 2°54.201 1.5 129 4.6 101360 92
2002-11-27 08:02:14 51°15.334 2°54.182 1.9 130 4.7 101360 92
2002-11-27 08:02:19 51°15.351 2°54.167 2.1 166 4.7 101360 92
2002-11-27 08:02:24 51°15.368 2°54.152 1.6 116 4.7 101360 92
2002-11-27 08:02:28 51°15.382 2°54.14 2.1 111 4.7 101360 92
2002-11-27 08:02:34 51°15.402 2°54.122 1.5 209 4.7 101360 92
2002-11-27 08:02:38 51°15.416 2°54.11 1.6 192 4.7 101360 92
2002-11-27 08:02:44 51°15.436 2°54.092 1.3 153 4.7 101360 92
2002-11-27 08:02:48 51°15.449 2°54.08 0.8 45 4.7 101360 92
2002-11-27 08:02:54 51°15.469 2°54.061 1.4 71 4.7 101360 92
2002-11-27 08:02:59 51°15.486 2°54.045 1.3 95 4.8 101360 92
2002-11-27 08:03:04 51°15.503 2°54.03 1.5 82 4.8 101360 92
2002-11-27 08:03:08 51°15.516 2°54.017 2.1 152 4.8 101360 92
2002-11-27 08:03:14 51°15.536 2°53.998 2.9 108 4.8 101360 92
2002-11-27 08:03:19 51°15.553 2°53.983 2.1 103 4.8 101360 92
2002-11-27 08:03:24 51°15.57 2°53.967 2.2 96 4.8 101360 92
2002-11-27 08:03:28 51°15.583 2°53.955 2.7 91 4.8 101360 92
2002-11-27 08:03:34 51°15.603 2°53.937 2.1 85 4.8 101360 92
2002-11-27 08:03:39 51°15.621 2°53.922 2.3 92 4.9 101360 92
2002-11-27 08:03:44 51°15.638 2°53.907 2.5 98 4.9 101360 92
2002-11-27 08:03:48 51°15.652 2°53.895 2.2 78 4.9 101360 92
2002-11-27 08:03:54 51°15.672 2°53.877 2 73 4.9 101360 92
2002-11-27 08:03:59 51°15.69 2°53.861 1.8 83 4.9 101360 92
2002-11-27 08:04:04 51°15.707 2°53.846 1.5 94 4.9 101360 92
2002-11-27 08:04:08 51°15.72 2°53.833 0.8 114 4.9 101360 92
2002-11-27 08:04:14 51°15.741 2°53.815 1.2 116 4.9 101360 92
2002-11-27 08:04:19 51°15.758 2°53.798 0.8 65 4.9 101360 92
2002-11-27 08:04:24 51°15.774 2°53.783 0.9 126 4.9 101360 92
2002-11-27 08:04:28 51°15.788 2°53.769 1.3 121 4.9 101360 92
2002-11-27 08:04:34 51°15.808 2°53.75 1.3 103 4.9 101360 92
2002-11-27 08:04:39 51°15.825 2°53.734 1.1 87 4.9 101370 92
2002-11-27 08:04:44 51°15.841 2°53.718 1.1 94 4.9 101370 92
2002-11-27 08:04:48 51°15.855 2°53.705 1.2 79 4.9 101370 92
2002-11-27 08:04:54 51°15.875 2°53.685 1.3 83 5 101360 92
2002-11-27 08:04:59 51°15.892 2°53.669 1.5 75 5 101360 92
2002-11-27 08:05:04 51°15.908 2°53.653 1.4 80 5 101360 92
2002-11-27 08:05:08 51°15.921 2°53.64 1.7 84 5 101360 92
2002-11-27 08:05:14 51°15.942 2°53.621 1.7 107 5 101360 92
2002-11-27 08:05:19 51°15.958 2°53.605 1.8 114 5 101360 92
2002-11-27 08:05:24 51°15.975 2°53.589 2 104 5 101370 92
2002-11-27 08:05:28 51°15.988 2°53.576 1.9 103 5 101370 92
2002-11-27 08:05:34 51°16.008 2°53.556 2.1 97 5 101370 92
2002-11-27 08:05:39 51°16.025 2°53.541 2.1 96 5 101370 92
2002-11-27 08:05:44 51°16.042 2°53.524 1.4 88 5 101360 92
2002-11-27 08:05:48 51°16.055 2°53.511 1.3 93 5 101360 92
2002-11-27 08:05:54 51°16.076 2°53.492 1.1 175 5 101360 92
2002-11-27 08:05:59 51°16.092 2°53.476 1.1 164 5 101360 92
2002-11-27 08:06:04 51°16.109 2°53.46 1.1 164 5 101360 92
2002-11-27 08:06:09 51°16.126 2°53.444 0.7 159 5 101360 92
2002-11-27 08:06:14 51°16.143 2°53.428 1.2 177 5.1 101360 92
2002-11-27 08:06:19 51°16.16 2°53.412 1.3 160 5.1 101360 92
2002-11-27 08:06:24 51°16.177 2°53.396 1.9 141 5.1 101360 92
2002-11-27 08:06:28 51°16.191 2°53.383 1.5 136 5.1 101360 92
2002-11-27 08:06:34 51°16.211 2°53.364 1.7 145 5.1 101360 92
2002-11-27 08:06:39 51°16.228 2°53.348 1.7 126 5.1 101370 92
2002-11-27 08:06:44 51°16.245 2°53.332 2 125 5.1 101370 92
2002-11-27 08:06:48 51°16.258 2°53.319 2 116 5.1 101370 92
2002-11-27 08:06:54 51°16.278 2°53.299 1.6 117 5.1 101360 92
2002-11-27 08:06:59 51°16.295 2°53.283 1.5 108 5.1 101360 92
2002-11-27 08:07:04 51°16.312 2°53.267 1.4 112 5.1 101360 92
2002-11-27 08:07:08 51°16.325 2°53.254 1.6 140 5.1 101360 92
2002-11-27 08:07:14 51°16.345 2°53.234 1.6 132 5.2 101360 92
2002-11-27 08:07:19 51°16.362 2°53.218 1.2 131 5.2 101360 92
2002-11-27 08:07:24 51°16.379 2°53.202 1 140 5.2 101370 92
2002-11-27 08:07:28 51°16.392 2°53.189 0.9 142 5.2 101370 92
2002-11-27 08:07:34 51°16.412 2°53.17 0.8 150 5.2 101370 92
2002-11-27 08:07:39 51°16.43 2°53.154 0.9 151 5.2 101360 92
2002-11-27 08:07:44 51°16.446 2°53.139 0.7 176 5.2 101360 92
2002-11-27 08:07:48 51°16.46 2°53.126 1 161 5.2 101360 92
2002-11-27 08:07:54 51°16.48 2°53.107 1.4 155 5.2 101360 92
2002-11-27 08:07:59 51°16.497 2°53.09 1.4 141 5.2 101370 92
2002-11-27 08:08:04 51°16.514 2°53.074 1.5 151 5.2 101370 92
2002-11-27 08:08:08 51°16.527 2°53.061 1.8 86 5.2 101370 92
2002-11-27 08:08:14 51°16.547 2°53.042 1.7 103 5.2 101360 92
2002-11-27 08:08:19 51°16.564 2°53.026 1.6 88 5.2 101360 92
2002-11-27 08:08:24 51°16.581 2°53.01 1.6 82 5.2 101360 92
2002-11-27 08:08:28 51°16.595 2°52.998 2 104 5.2 101360 92
2002-11-27 08:08:34 51°16.615 2°52.979 1.4 102 5.2 101370 92
2002-11-27 08:08:39 51°16.631 2°52.963 2 101 5.2 101360 92
2002-11-27 08:08:44 51°16.648 2°52.947 1.1 144 5.2 101360 92
2002-11-27 08:08:48 51°16.662 2°52.934 1.8 74 5.2 101360 92
2002-11-27 08:08:52 51°16.675 2°52.921 2 87 5.2 101370 92
2002-11-27 08:08:59 51°16.699 2°52.899 1.7 75 5.2 101370 92
2002-11-27 08:09:04 51°16.715 2°52.883 1.9 85 5.2 101370 92
2002-11-27 08:09:08 51°16.729 2°52.87 0.8 97 5.2 101370 92
2002-11-27 08:09:14 51°16.749 2°52.851 0.6 105 5.2 101370 92
2002-11-27 08:09:18 51°16.763 2°52.838 0.7 82 5.2 101370 92
2002-11-27 08:09:24 51°16.783 2°52.819 0.6 106 5.2 101370 92
2002-11-27 08:09:28 51°16.796 2°52.807 0.5 116 5.2 101380 92
2002-11-27 08:09:34 51°16.816 2°52.788 0.3 112 5.2 101380 92
2002-11-27 08:09:39 51°16.832 2°52.772 0.5 113 5.2 101380 92
2002-11-27 08:09:44 51°16.849 2°52.756 0.8 156 5.2 101370 92
2002-11-27 08:09:48 51°16.863 2°52.744 0.9 186 5.2 101370 92
2002-11-27 08:09:54 51°16.883 2°52.725 0.7 122 5.2 101370 92
2002-11-27 08:09:59 51°16.9 2°52.71 0.6 134 5.2 101370 92
2002-11-27 08:10:04 51°16.917 2°52.695 0.5 126 5.2 101370 92
2002-11-27 08:10:08 51°16.931 2°52.683 1.1 134 5.2 101370 92
2002-11-27 08:10:14 51°16.951 2°52.665 1.2 131 5.3 101370 92
2002-11-27 08:10:19 51°16.968 2°52.65 1 118 5.3 101370 92
2002-11-27 08:10:24 51°16.986 2°52.635 1.2 144 5.3 101370 92
2002-11-27 08:10:28 51°17 2°52.623 1.1 157 5.3 101370 92
2002-11-27 08:10:34 51°17.021 2°52.604 0.9 168 5.3 101370 92
2002-11-27 08:10:38 51°17.035 2°52.592 0.7 185 5.3 101370 92
2002-11-27 08:10:44 51°17.055 2°52.574 0.7 182 5.2 101370 91
2002-11-27 08:10:48 51°17.069 2°52.562 0.5 187 5.2 101380 91
2002-11-27 08:10:54 51°17.09 2°52.544 0.7 195 5.2 101380 91
2002-11-27 08:10:59 51°17.107 2°52.528 0.7 190 5.2 101370 91
2002-11-27 08:11:04 51°17.124 2°52.513 0.6 188 5.2 101370 91
2002-11-27 08:11:08 51°17.138 2°52.501 0.4 177 5.2 101370 91
2002-11-27 08:11:14 51°17.159 2°52.483 0.3 191 5.2 101380 91
2002-11-27 08:11:19 51°17.175 2°52.468 0.8 232 5.2 101380 91
2002-11-27 08:11:24 51°17.193 2°52.453 1.1 209 5.2 101370 91
2002-11-27 08:11:28 51°17.207 2°52.441 1 214 5.2 101370 91
2002-11-27 08:11:34 51°17.229 2°52.425 1.3 186 5.2 101380 91
2002-11-27 08:11:39 51°17.247 2°52.413 1.6 169 5.2 101380 91
2002-11-27 08:11:44 51°17.266 2°52.403 2.2 182 5.2 101370 91
2002-11-27 08:11:48 51°17.281 2°52.396 2.3 168 5.2 101370 91
2002-11-27 08:11:54 51°17.304 2°52.386 2.6 166 5.3 101370 91
2002-11-27 08:11:59 51°17.324 2°52.379 2.7 175 5.2 101370 91
2002-11-27 08:12:04 51°17.343 2°52.373 4 171 5.2 101370 91
2002-11-27 08:12:08 51°17.359 2°52.368 3.9 141 5.2 101370 91
2002-11-27 08:12:14 51°17.382 2°52.362 3.4 142 5.3 101370 91
2002-11-27 08:12:19 51°17.402 2°52.359 3.8 134 5.3 101370 91
2002-11-27 08:12:24 51°17.421 2°52.357 4 139 5.3 101370 91
2002-11-27 08:12:28 51°17.437 2°52.355 4.5 144 5.3 101370 92
2002-11-27 08:12:34 51°17.461 2°52.355 3.6 143 5.3 101370 92
2002-11-27 08:12:39 51°17.481 2°52.354 3.7 145 5.3 101370 92
2002-11-27 08:12:44 51°17.501 2°52.354 3.9 157 5.3 101370 92
2002-11-27 08:12:48 51°17.517 2°52.354 3.6 156 5.3 101370 92
2002-11-27 08:12:54 51°17.541 2°52.354 3.2 148 5.3 101380 91
2002-11-27 08:12:59 51°17.561 2°52.354 3.5 150 5.3 101380 91
2002-11-27 08:13:04 51°17.58 2°52.354 4.2 163 5.4 101370 91
2002-11-27 08:13:08 51°17.596 2°52.353 4.3 141 5.4 101370 91
2002-11-27 08:13:14 51°17.62 2°52.353 3.9 136 5.4 101380 91
2002-11-27 08:13:19 51°17.64 2°52.353 4.1 130 5.4 101380 91
2002-11-27 08:13:24 51°17.66 2°52.352 3.3 140 5.4 101370 91
2002-11-27 08:13:28 51°17.676 2°52.351 3 134 5.4 101370 91
2002-11-27 08:13:34 51°17.699 2°52.35 3 143 5.4 101370 91
2002-11-27 08:13:39 51°17.72 2°52.35 2.8 152 5.4 101370 91
2002-11-27 08:13:44 51°17.739 2°52.349 3.2 156 5.4 101370 91
2002-11-27 08:13:48 51°17.755 2°52.349 4 166 5.4 101370 91
2002-11-27 08:13:54 51°17.779 2°52.347 4.7 161 5.5 101380 91
2002-11-27 08:13:59 51°17.799 2°52.347 4.2 143 5.5 101370 91
2002-11-27 08:14:04 51°17.819 2°52.346 4.4 145 5.5 101370 91
2002-11-27 08:14:08 51°17.835 2°52.345 4.6 153 5.5 101370 91
2002-11-27 08:14:14 51°17.859 2°52.344 3.5 153 5.5 101370 91
2002-11-27 08:14:19 51°17.878 2°52.344 3.8 154 5.5 101380 91
2002-11-27 08:14:24 51°17.898 2°52.345 4.8 163 5.5 101380 91
2002-11-27 08:14:28 51°17.914 2°52.347 5.6 164 5.6 101380 91
2002-11-27 08:14:33 51°17.934 2°52.352 6.3 177 5.6 101380 91
2002-11-27 08:14:38 51°17.953 2°52.359 6.1 174 5.6 101380 91
2002-11-27 08:14:43 51°17.972 2°52.366 6.2 168 5.6 101380 91
2002-11-27 08:14:48 51°17.991 2°52.373 7.4 177 5.6 101380 91
2002-11-27 08:14:52 51°18.006 2°52.381 6.9 174 5.6 101370 91
2002-11-27 08:14:58 51°18.029 2°52.391 6.7 177 5.6 101370 91
2002-11-27 08:15:04 51°18.051 2°52.401 6.8 176 5.6 101370 91
2002-11-27 08:15:08 51°18.066 2°52.408 7.2 164 5.6 101370 91
2002-11-27 08:15:12 51°18.082 2°52.415 8.4 165 5.6 101370 91
2002-11-27 08:15:18 51°18.104 2°52.426 6.9 159 5.6 101370 91
2002-11-27 08:15:23 51°18.124 2°52.434 7 169 5.6 101370 91
2002-11-27 08:15:28 51°18.143 2°52.443 5.9 168 5.6 101370 91
2002-11-27 08:15:32 51°18.158 2°52.449 6.2 166 5.6 101370 91
2002-11-27 08:15:38 51°18.18 2°52.46 7 167 5.6 101360 91
2002-11-27 08:15:44 51°18.204 2°52.469 6.5 166 5.6 101360 91
2002-11-27 08:15:48 51°18.219 2°52.477 5.8 171 5.6 101360 91
2002-11-27 08:15:53 51°18.238 2°52.485 6.3 178 5.6 101360 91
2002-11-27 08:15:58 51°18.257 2°52.493 7.4 175 5.6 101360 91
2002-11-27 08:16:03 51°18.276 2°52.5 7.6 173 5.6 101370 91
2002-11-27 08:16:08 51°18.295 2°52.509 6.4 165 5.6 101370 91
2002-11-27 08:16:13 51°18.314 2°52.517 6.4 167 5.6 101370 91
2002-11-27 08:16:18 51°18.333 2°52.525 7 170 5.6 101370 91
2002-11-27 08:16:23 51°18.353 2°52.532 6.5 168 5.6 101370 91
2002-11-27 08:16:28 51°18.372 2°52.539 7 168 5.6 101370 91
2002-11-27 08:16:34 51°18.395 2°52.549 6.4 170 5.6 101370 91
2002-11-27 08:16:39 51°18.414 2°52.556 6.6 170 5.6 101370 91
2002-11-27 08:16:43 51°18.429 2°52.563 6.4 169 5.6 101370 91
2002-11-27 08:16:48 51°18.449 2°52.571 6.6 173 5.6 101370 91
2002-11-27 08:16:53 51°18.468 2°52.579 7 167 5.6 101370 91
2002-11-27 08:16:59 51°18.491 2°52.587 6.4 153 5.6 101370 91
2002-11-27 08:17:03 51°18.507 2°52.593 6.6 156 5.6 101360 91
2002-11-27 08:17:08 51°18.526 2°52.601 5.5 170 5.6 101360 91
2002-11-27 08:17:12 51°18.541 2°52.608 6.5 171 5.6 101360 91
2002-11-27 08:17:18 51°18.564 2°52.619 7.2 160 5.6 101360 91
2002-11-27 08:17:24 51°18.586 2°52.633 6.5 157 5.6 101370 91
2002-11-27 08:17:28 51°18.6 2°52.644 9.1 166 5.6 101370 91
2002-11-27 08:17:32 51°18.613 2°52.656 9.5 174 5.6 101360 91
2002-11-27 08:17:38 51°18.634 2°52.675 9.3 178 5.6 101360 91
2002-11-27 08:17:43 51°18.65 2°52.692 6.8 182 5.7 101370 91
2002-11-27 08:17:48 51°18.666 2°52.71 7.9 179 5.7 101370 91
2002-11-27 08:17:52 51°18.678 2°52.725 8 181 5.7 101370 91
2002-11-27 08:17:58 51°18.697 2°52.749 7.3 190 5.7 101370 91
2002-11-27 08:18:03 51°18.711 2°52.77 7.5 189 5.7 101360 91
2002-11-27 08:18:08 51°18.724 2°52.792 8.1 184 5.7 101370 91
2002-11-27 08:18:12 51°18.735 2°52.811 8.7 189 5.7 101370 91
2002-11-27 08:18:18 51°18.749 2°52.84 9 187 5.7 101370 91
2002-11-27 08:18:23 51°18.761 2°52.864 8.4 186 5.7 101360 91
2002-11-27 08:18:28 51°18.772 2°52.889 9.8 195 5.7 101360 91
2002-11-27 08:18:32 51°18.781 2°52.908 9.4 188 5.7 101360 91
2002-11-27 08:18:38 51°18.794 2°52.939 9 192 5.7 101360 91
2002-11-27 08:18:43 51°18.805 2°52.965 10.3 193 5.7 101350 91
2002-11-27 08:18:48 51°18.815 2°52.991 9.9 194 5.7 101350 91
2002-11-27 08:18:52 51°18.823 2°53.012 8.7 185 5.6 101350 91
2002-11-27 08:18:58 51°18.834 2°53.044 11.1 193 5.6 101350 91
2002-11-27 08:19:03 51°18.844 2°53.071 10.9 193 5.6 101350 91
2002-11-27 08:19:08 51°18.854 2°53.097 10.9 194 5.6 101350 91
2002-11-27 08:19:12 51°18.861 2°53.119 9.9 194 5.6 101350 91
2002-11-27 08:19:18 51°18.872 2°53.152 11.2 195 5.6 101350 91
2002-11-27 08:19:23 51°18.88 2°53.179 10.4 195 5.6 101350 90
2002-11-27 08:19:28 51°18.888 2°53.208 11.5 198 5.6 101350 90
2002-11-27 08:19:32 51°18.894 2°53.23 11 198 5.5 101340 90
2002-11-27 08:19:38 51°18.904 2°53.263 10.9 194 5.5 101340 90
2002-11-27 08:19:43 51°18.912 2°53.291 12 196 5.5 101350 90
2002-11-27 08:19:48 51°18.919 2°53.319 11.7 195 5.5 101350 90
2002-11-27 08:19:52 51°18.925 2°53.342 9.7 197 5.5 101350 90
2002-11-27 08:19:58 51°18.935 2°53.375 10.9 196 5.5 101350 90
2002-11-27 08:20:02 51°18.941 2°53.397 11.5 197 5.5 101350 90
2002-11-27 08:20:08 51°18.95 2°53.431 11 195 5.5 101350 90
2002-11-27 08:20:12 51°18.956 2°53.454 11.1 193 5.5 101350 90
2002-11-27 08:20:18 51°18.964 2°53.488 12.1 195 5.5 101350 90
2002-11-27 08:20:23 51°18.971 2°53.516 12.2 193 5.5 101340 91
2002-11-27 08:20:28 51°18.978 2°53.545 11.2 198 5.5 101340 91
2002-11-27 08:20:32 51°18.983 2°53.568 11.6 197 5.5 101350 91
2002-11-27 08:20:39 51°18.992 2°53.609 13 196 5.5 101350 91
2002-11-27 08:20:43 51°18.996 2°53.632 11.9 195 5.5 101350 91
2002-11-27 08:20:48 51°19.002 2°53.661 11 193 5.5 101350 91
2002-11-27 08:20:52 51°19.007 2°53.684 12.5 196 5.5 101350 91
2002-11-27 08:20:58 51°19.015 2°53.719 11.7 195 5.5 101350 91
2002-11-27 08:21:04 51°19.022 2°53.754 11 195 5.5 101350 91
2002-11-27 08:21:09 51°19.028 2°53.783 10.8 196 5.5 101350 91
2002-11-27 08:21:13 51°19.033 2°53.806 11.4 194 5.4 101340 91
2002-11-27 08:21:19 51°19.04 2°53.84 11.2 196 5.4 101340 91
2002-11-27 08:21:23 51°19.045 2°53.863 11 197 5.4 101350 90
2002-11-27 08:21:29 51°19.052 2°53.898 12 194 5.4 101350 90
2002-11-27 08:21:33 51°19.058 2°53.921 11.2 194 5.4 101360 90
2002-11-27 08:21:39 51°19.065 2°53.955 11.4 191 5.4 101360 90
2002-11-27 08:21:43 51°19.07 2°53.978 10.3 192 5.4 101350 91
2002-11-27 08:21:49 51°19.077 2°54.012 11.4 190 5.4 101350 91
2002-11-27 08:21:53 51°19.082 2°54.035 10.3 189 5.4 101350 91
2002-11-27 08:21:59 51°19.09 2°54.07 11.3 191 5.4 101350 91
2002-11-27 08:22:04 51°19.096 2°54.098 10.5 191 5.4 101340 91
2002-11-27 08:22:09 51°19.103 2°54.127 10.6 194 5.4 101340 91
2002-11-27 08:22:13 51°19.107 2°54.15 12.5 199 5.4 101350 90
2002-11-27 08:22:19 51°19.115 2°54.185 12 193 5.4 101350 90
2002-11-27 08:22:24 51°19.121 2°54.214 12 195 5.4 101340 90
2002-11-27 08:22:29 51°19.127 2°54.242 10.8 194 5.4 101340 90
2002-11-27 08:22:33 51°19.131 2°54.265 11.3 200 5.4 101350 90
2002-11-27 08:22:39 51°19.139 2°54.3 11.2 197 5.4 101350 90
2002-11-27 08:22:44 51°19.146 2°54.328 12 190 5.4 101350 91
2002-11-27 08:22:49 51°19.152 2°54.357 11.5 195 5.4 101350 91
2002-11-27 08:22:53 51°19.157 2°54.379 11 196 5.4 101340 91
2002-11-27 08:22:59 51°19.165 2°54.414 9.9 196 5.4 101340 91
2002-11-27 08:23:04 51°19.172 2°54.443 12.1 196 5.4 101350 91
2002-11-27 08:23:09 51°19.178 2°54.472 13.1 199 5.4 101350 91
2002-11-27 08:23:13 51°19.183 2°54.495 13.1 197 5.3 101350 90
2002-11-27 08:23:19 51°19.19 2°54.529 11.7 193 5.3 101350 90
2002-11-27 08:23:24 51°19.197 2°54.558 11.8 199 5.4 101350 91
2002-11-27 08:23:29 51°19.202 2°54.587 11.7 195 5.4 101350 91
2002-11-27 08:23:33 51°19.207 2°54.61 11.6 194 5.4 101350 91
2002-11-27 08:23:39 51°19.215 2°54.644 11.1 191 5.4 101350 91
2002-11-27 08:23:44 51°19.221 2°54.673 11 193 5.4 101350 91
2002-11-27 08:23:49 51°19.227 2°54.702 12.7 198 5.4 101350 91
2002-11-27 08:23:53 51°19.232 2°54.725 12.2 195 5.3 101350 90
2002-11-27 08:23:59 51°19.24 2°54.759 9.9 188 5.3 101350 90
2002-11-27 08:24:04 51°19.247 2°54.787 9.9 190 5.4 101350 91
2002-11-27 08:24:09 51°19.253 2°54.816 10.7 194 5.4 101350 91
2002-11-27 08:24:13 51°19.258 2°54.839 10.9 193 5.4 101340 91
2002-11-27 08:24:19 51°19.266 2°54.873 11.1 192 5.4 101340 91
2002-11-27 08:24:23 51°19.271 2°54.896 11.6 197 5.3 101340 91
2002-11-27 08:24:29 51°19.278 2°54.931 10.8 188 5.3 101340 91
2002-11-27 08:24:33 51°19.283 2°54.954 12.9 196 5.3 101350 90
2002-11-27 08:24:39 51°19.291 2°54.988 11.2 191 5.3 101350 90
2002-11-27 08:24:44 51°19.297 2°55.017 10.7 194 5.3 101350 90
2002-11-27 08:24:49 51°19.304 2°55.045 9.8 189 5.3 101350 90
2002-11-27 08:24:53 51°19.31 2°55.067 11.8 192 5.4 101350 91
2002-11-27 08:24:59 51°19.317 2°55.101 11.5 196 5.4 101340 91
2002-11-27 08:25:04 51°19.324 2°55.13 11.6 196 5.4 101340 91
2002-11-27 08:25:09 51°19.33 2°55.159 11.5 198 5.4 101340 91
2002-11-27 08:25:14 51°19.337 2°55.187 10.9 193 5.3 101350 90
2002-11-27 08:25:19 51°19.343 2°55.216 12.2 193 5.3 101350 90
2002-11-27 08:25:24 51°19.349 2°55.245 12.2 191 5.3 101350 90
2002-11-27 08:25:29 51°19.355 2°55.274 11.2 191 5.3 101350 90
2002-11-27 08:25:33 51°19.36 2°55.297 11.3 198 5.4 101340 91
2002-11-27 08:25:39 51°19.368 2°55.331 12.6 199 5.4 101340 91
2002-11-27 08:25:43 51°19.372 2°55.354 12.9 192 5.4 101340 91
2002-11-27 08:25:49 51°19.379 2°55.389 11.4 192 5.4 101340 91
2002-11-27 08:25:53 51°19.384 2°55.413 10 189 5.4 101340 91
2002-11-27 08:25:59 51°19.393 2°55.449 10.2 189 5.4 101340 91
2002-11-27 08:26:04 51°19.399 2°55.477 10.2 191 5.4 101340 91
2002-11-27 08:26:09 51°19.406 2°55.506 12 199 5.4 101340 91
2002-11-27 08:26:14 51°19.413 2°55.535 12.3 201 5.4 101340 90
2002-11-27 08:26:19 51°19.42 2°55.563 11.5 196 5.4 101340 90
2002-11-27 08:26:24 51°19.426 2°55.591 10.9 193 5.4 101340 90
2002-11-27 08:26:29 51°19.433 2°55.62 11.5 189 5.4 101340 90
2002-11-27 08:26:33 51°19.437 2°55.643 12.3 199 5.4 101350 91
2002-11-27 08:26:39 51°19.445 2°55.677 12.2 201 5.4 101340 90
2002-11-27 08:26:44 51°19.451 2°55.706 12.2 197 5.4 101340 90
2002-11-27 08:26:49 51°19.457 2°55.734 11.5 199 5.4 101340 90
2002-11-27 08:26:53 51°19.462 2°55.757 10.8 195 5.3 101340 90
2002-11-27 08:26:59 51°19.469 2°55.793 10.5 199 5.3 101340 90
2002-11-27 08:27:04 51°19.476 2°55.821 11.5 197 5.3 101350 90
2002-11-27 08:27:09 51°19.481 2°55.849 11.7 198 5.3 101350 90
2002-11-27 08:27:13 51°19.487 2°55.872 12.7 196 5.3 101350 90
2002-11-27 08:27:19 51°19.493 2°55.906 11.6 195 5.3 101350 90
2002-11-27 08:27:24 51°19.5 2°55.935 11.5 195 5.3 101340 90
2002-11-27 08:27:29 51°19.506 2°55.964 12.4 197 5.3 101340 90
2002-11-27 08:27:33 51°19.512 2°55.987 13.9 197 5.3 101350 90
2002-11-27 08:27:39 51°19.518 2°56.022 13.5 196 5.3 101350 90
2002-11-27 08:27:44 51°19.525 2°56.05 12.7 197 5.3 101340 90
2002-11-27 08:27:49 51°19.531 2°56.08 11.4 196 5.3 101340 90
2002-11-27 08:27:53 51°19.536 2°56.103 13.1 196 5.3 101350 90
2002-11-27 08:27:59 51°19.543 2°56.137 10.6 193 5.3 101360 90
2002-11-27 08:28:04 51°19.551 2°56.165 10.1 192 5.3 101360 90
2002-11-27 08:28:09 51°19.556 2°56.195 10.7 199 5.3 101360 90
2002-11-27 08:28:13 51°19.562 2°56.218 11.6 193 5.3 101340 90
2002-11-27 08:28:19 51°19.569 2°56.253 12.7 199 5.3 101340 90
2002-11-27 08:28:23 51°19.575 2°56.276 11.2 194 5.3 101350 90
2002-11-27 08:28:29 51°19.581 2°56.312 9.7 194 5.3 101350 90
2002-11-27 08:28:33 51°19.587 2°56.335 11.6 199 5.3 101350 90
2002-11-27 08:28:39 51°19.594 2°56.37 11.6 195 5.3 101350 90
2002-11-27 08:28:44 51°19.6 2°56.4 10.7 198 5.3 101340 90
2002-11-27 08:28:49 51°19.606 2°56.429 10.5 196 5.3 101340 90
2002-11-27 08:28:53 51°19.612 2°56.452 12.9 203 5.3 101340 90
2002-11-27 08:28:59 51°19.619 2°56.487 11.7 200 5.3 101340 90
2002-11-27 08:29:04 51°19.625 2°56.516 11.8 201 5.3 101340 90
2002-11-27 08:29:09 51°19.632 2°56.545 11.7 194 5.3 101340 90
2002-11-27 08:29:13 51°19.636 2°56.568 11.2 194 5.3 101350 90
2002-11-27 08:29:19 51°19.644 2°56.603 10.5 196 5.3 101350 90
2002-11-27 08:29:23 51°19.649 2°56.626 10.5 202 5.3 101350 90
2002-11-27 08:29:29 51°19.657 2°56.661 11.6 200 5.3 101350 90
2002-11-27 08:29:33 51°19.662 2°56.684 10.9 201 5.3 101350 90
2002-11-27 08:29:39 51°19.671 2°56.718 11.5 200 5.3 101350 90
2002-11-27 08:29:44 51°19.677 2°56.747 10.5 196 5.3 101350 90
2002-11-27 08:29:49 51°19.684 2°56.776 11.4 197 5.3 101350 90
2002-11-27 08:29:53 51°19.689 2°56.799 12.5 198 5.3 101360 91
2002-11-27 08:29:59 51°19.697 2°56.835 13.1 196 5.3 101350 90
2002-11-27 08:30:04 51°19.703 2°56.864 12.6 194 5.3 101350 90
2002-11-27 08:30:09 51°19.709 2°56.893 13.5 194 5.3 101350 90
2002-11-27 08:30:13 51°19.714 2°56.916 11.7 195 5.3 101350 90
2002-11-27 08:30:19 51°19.722 2°56.951 10.7 194 5.3 101350 90
2002-11-27 08:30:24 51°19.729 2°56.98 12.1 202 5.3 101350 90
2002-11-27 08:30:29 51°19.735 2°57.009 12.7 204 5.3 101350 90
2002-11-27 08:30:33 51°19.741 2°57.032 12.8 202 5.3 101350 90
2002-11-27 08:30:39 51°19.748 2°57.068 11.4 204 5.3 101350 90
2002-11-27 08:30:44 51°19.755 2°57.097 11.6 197 5.3 101350 90
2002-11-27 08:30:49 51°19.761 2°57.126 11.8 197 5.3 101360 90
2002-11-27 08:30:53 51°19.766 2°57.149 12.3 200 5.3 101360 90
2002-11-27 08:30:59 51°19.772 2°57.185 11.2 201 5.3 101360 90
2002-11-27 08:31:04 51°19.778 2°57.214 11.1 199 5.4 101350 91
2002-11-27 08:31:09 51°19.785 2°57.243 13.9 199 5.4 101350 91
2002-11-27 08:31:13 51°19.79 2°57.266 14.1 196 5.4 101350 91
2002-11-27 08:31:19 51°19.797 2°57.301 11.2 192 5.4 101350 91
2002-11-27 08:31:24 51°19.804 2°57.33 11.1 196 5.4 101350 91
2002-11-27 08:31:29 51°19.81 2°57.36 11.7 194 5.4 101350 91
2002-11-27 08:31:33 51°19.815 2°57.383 11.2 195 5.4 101350 91
2002-11-27 08:31:39 51°19.824 2°57.417 11.8 196 5.4 101350 91
2002-11-27 08:31:44 51°19.83 2°57.445 11.4 196 5.4 101340 91
2002-11-27 08:31:49 51°19.837 2°57.474 11.4 199 5.4 101340 91
2002-11-27 08:31:53 51°19.842 2°57.498 11.2 201 5.4 101350 90
2002-11-27 08:31:59 51°19.85 2°57.533 11.7 200 5.4 101350 90
2002-11-27 08:32:04 51°19.856 2°57.562 11.9 201 5.4 101350 91
2002-11-27 08:32:09 51°19.862 2°57.591 12.5 198 5.4 101350 91
2002-11-27 08:32:14 51°19.868 2°57.62 10.9 193 5.4 101350 90
2002-11-27 08:32:19 51°19.874 2°57.649 12.3 201 5.4 101350 90
2002-11-27 08:32:24 51°19.881 2°57.678 11.5 197 5.4 101360 91
2002-11-27 08:32:29 51°19.887 2°57.707 12.2 200 5.4 101360 91
2002-11-27 08:32:33 51°19.892 2°57.73 11.4 198 5.5 101350 91
2002-11-27 08:32:39 51°19.9 2°57.764 11.1 190 5.5 101350 91
2002-11-27 08:32:44 51°19.906 2°57.794 10.4 192 5.4 101360 90
2002-11-27 08:32:49 51°19.912 2°57.823 11.4 199 5.4 101360 90
2002-11-27 08:32:53 51°19.917 2°57.846 11.1 197 5.4 101360 90
2002-11-27 08:32:59 51°19.924 2°57.881 11.6 198 5.4 101360 90
2002-11-27 08:33:04 51°19.93 2°57.91 11.5 199 5.4 101350 90
2002-11-27 08:33:09 51°19.936 2°57.939 11.5 199 5.4 101350 90
2002-11-27 08:33:13 51°19.941 2°57.963 11 199 5.4 101350 90
2002-11-27 08:33:19 51°19.949 2°57.997 11.2 196 5.4 101350 90
2002-11-27 08:33:24 51°19.955 2°58.027 10.8 194 5.4 101350 90
2002-11-27 08:33:29 51°19.962 2°58.056 11.2 193 5.4 101350 90
2002-11-27 08:33:33 51°19.967 2°58.079 11.6 198 5.4 101350 90
2002-11-27 08:33:39 51°19.974 2°58.113 11.4 195 5.4 101350 90
2002-11-27 08:33:44 51°19.981 2°58.142 13.1 199 5.4 101350 90
2002-11-27 08:33:49 51°19.987 2°58.171 12.9 200 5.4 101350 90
2002-11-27 08:33:53 51°19.993 2°58.194 11.5 196 5.4 101350 90
2002-11-27 08:33:59 51°20 2°58.229 11.8 196 5.4 101350 90
2002-11-27 08:34:04 51°20.007 2°58.258 10.8 200 5.4 101360 90
2002-11-27 08:34:09 51°20.013 2°58.287 10.3 197 5.4 101360 90
2002-11-27 08:34:13 51°20.018 2°58.31 12.5 199 5.4 101350 90
2002-11-27 08:34:19 51°20.025 2°58.345 11.8 198 5.4 101350 90
2002-11-27 08:34:24 51°20.033 2°58.374 12.2 192 5.4 101350 90
2002-11-27 08:34:29 51°20.039 2°58.403 12.7 194 5.4 101350 90
2002-11-27 08:34:33 51°20.044 2°58.425 12 199 5.4 101350 90
2002-11-27 08:34:39 51°20.052 2°58.46 11.9 197 5.4 101350 90
2002-11-27 08:34:44 51°20.058 2°58.489 11.1 197 5.4 101350 90
2002-11-27 08:34:49 51°20.064 2°58.518 10.4 201 5.4 101350 90
2002-11-27 08:34:53 51°20.07 2°58.541 10.5 196 5.3 101350 90
2002-11-27 08:34:59 51°20.077 2°58.576 12.7 195 5.3 101350 90
2002-11-27 08:35:04 51°20.084 2°58.605 11.7 193 5.3 101350 90
2002-11-27 08:35:09 51°20.09 2°58.635 11.6 203 5.3 101350 90
2002-11-27 08:35:13 51°20.095 2°58.658 10.7 195 5.4 101360 90
2002-11-27 08:35:19 51°20.102 2°58.693 11.9 201 5.4 101360 90
2002-11-27 08:35:24 51°20.107 2°58.722 11.5 200 5.4 101350 90
2002-11-27 08:35:29 51°20.113 2°58.752 10.8 199 5.4 101350 90
2002-11-27 08:35:33 51°20.118 2°58.775 11.5 197 5.4 101350 90
2002-11-27 08:35:39 51°20.125 2°58.81 10 199 5.4 101350 90
2002-11-27 08:35:44 51°20.132 2°58.839 10.7 200 5.4 101350 90
2002-11-27 08:35:49 51°20.138 2°58.868 11.6 201 5.4 101350 90
2002-11-27 08:35:53 51°20.143 2°58.891 12 195 5.3 101360 90
2002-11-27 08:35:59 51°20.15 2°58.926 11.9 194 5.3 101360 90
2002-11-27 08:36:04 51°20.157 2°58.955 11.3 194 5.4 101360 90
2002-11-27 08:36:09 51°20.163 2°58.984 12.3 195 5.4 101360 90
2002-11-27 08:36:14 51°20.169 2°59.013 10.9 196 5.4 101360 90
2002-11-27 08:36:19 51°20.175 2°59.042 11.1 194 5.4 101360 90
2002-11-27 08:36:24 51°20.181 2°59.072 11.6 196 5.3 101350 90
2002-11-27 08:36:29 51°20.187 2°59.101 11.4 198 5.3 101350 90
2002-11-27 08:36:33 51°20.192 2°59.124 11 195 5.3 101350 90
2002-11-27 08:36:39 51°20.198 2°59.159 11.1 195 5.3 101350 90
2002-11-27 08:36:44 51°20.205 2°59.187 12.3 198 5.3 101350 90
2002-11-27 08:36:49 51°20.211 2°59.217 11.2 196 5.3 101350 90
2002-11-27 08:36:53 51°20.216 2°59.24 10.5 198 5.3 101360 90
2002-11-27 08:36:59 51°20.223 2°59.275 10.4 204 5.3 101360 90
2002-11-27 08:37:04 51°20.23 2°59.303 10.5 200 5.3 101360 90
2002-11-27 08:37:09 51°20.235 2°59.332 11 202 5.3 101360 90
2002-11-27 08:37:13 51°20.24 2°59.355 11.5 196 5.3 101360 90
2002-11-27 08:37:19 51°20.247 2°59.39 10.9 197 5.3 101360 90
2002-11-27 08:37:24 51°20.254 2°59.419 10.3 195 5.3 101360 90
2002-11-27 08:37:29 51°20.26 2°59.448 11.3 195 5.3 101360 90
2002-11-27 08:37:33 51°20.265 2°59.472 11.2 197 5.3 101360 90
2002-11-27 08:37:39 51°20.273 2°59.506 11.3 195 5.3 101360 90
2002-11-27 08:37:44 51°20.279 2°59.535 11.9 202 5.3 101360 90
2002-11-27 08:37:49 51°20.285 2°59.564 11.1 203 5.3 101360 90
2002-11-27 08:37:53 51°20.291 2°59.588 12.5 200 5.3 101350 90
2002-11-27 08:37:59 51°20.298 2°59.622 12.5 198 5.3 101350 90
2002-11-27 08:38:04 51°20.304 2°59.651 13.2 197 5.3 101350 90
2002-11-27 08:38:09 51°20.31 2°59.68 10.9 196 5.3 101360 90
2002-11-27 08:38:13 51°20.314 2°59.704 10.5 196 5.3 101360 90
2002-11-27 08:38:19 51°20.322 2°59.739 11.8 199 5.3 101360 90
2002-11-27 08:38:23 51°20.326 2°59.762 11.7 198 5.3 101360 90
2002-11-27 08:38:29 51°20.333 2°59.797 10.8 201 5.3 101360 90
2002-11-27 08:38:33 51°20.338 2°59.82 11.2 198 5.3 101350 90
2002-11-27 08:38:39 51°20.345 2°59.855 10.6 200 5.3 101350 90
2002-11-27 08:38:44 51°20.352 2°59.884 11.4 198 5.2 101360 90
2002-11-27 08:38:49 51°20.358 2°59.913 11 197 5.2 101360 90
2002-11-27 08:38:53 51°20.363 2°59.937 11 199 5.2 101350 90
2002-11-27 08:38:59 51°20.37 2°59.971 11.3 202 5.3 101360 90
2002-11-27 08:39:04 51°20.376 2°60 11.7 200 5.3 101360 90
2002-11-27 08:39:09 51°20.383 3°0.028 12.3 200 5.3 101360 90
2002-11-27 08:39:13 51°20.387 3°0.052 10.6 199 5.3 101360 90
2002-11-27 08:39:19 51°20.395 3°0.087 10.6 198 5.3 101360 90
2002-11-27 08:39:24 51°20.401 3°0.115 11.6 204 5.2 101360 90
2002-11-27 08:39:29 51°20.407 3°0.144 10.7 205 5.2 101360 90
2002-11-27 08:39:33 51°20.412 3°0.167 10.8 205 5.2 101360 90
2002-11-27 08:39:39 51°20.419 3°0.202 12.3 198 5.2 101360 90
2002-11-27 08:39:44 51°20.425 3°0.231 11.3 196 5.2 101360 90
2002-11-27 08:39:49 51°20.431 3°0.26 11.4 201 5.2 101360 90
2002-11-27 08:39:53 51°20.436 3°0.282 12.3 197 5.2 101360 90
2002-11-27 08:39:59 51°20.442 3°0.317 11.1 199 5.2 101360 90
2002-11-27 08:40:04 51°20.449 3°0.345 10.7 197 5.2 101360 90
2002-11-27 08:40:09 51°20.454 3°0.374 11.2 196 5.2 101360 90
2002-11-27 08:40:13 51°20.459 3°0.397 10.2 193 5.2 101360 90
2002-11-27 08:40:19 51°20.466 3°0.432 11.3 198 5.2 101360 90
2002-11-27 08:40:24 51°20.472 3°0.461 10.7 196 5.2 101360 90
2002-11-27 08:40:29 51°20.477 3°0.489 11 198 5.2 101360 90
2002-11-27 08:40:33 51°20.482 3°0.512 11.9 199 5.2 101360 90
2002-11-27 08:40:39 51°20.489 3°0.546 11.2 200 5.2 101360 90
2002-11-27 08:40:44 51°20.495 3°0.574 12.1 198 5.2 101350 90
2002-11-27 08:40:49 51°20.501 3°0.603 11.3 203 5.2 101360 90
2002-11-27 08:40:53 51°20.506 3°0.626 9.9 202 5.2 101360 90
2002-11-27 08:40:59 51°20.514 3°0.66 11 203 5.2 101360 90
2002-11-27 08:41:04 51°20.519 3°0.689 11.5 204 5.2 101360 90
2002-11-27 08:41:09 51°20.525 3°0.717 11 198 5.2 101360 90
2002-11-27 08:41:13 51°20.53 3°0.74 10.6 201 5.2 101360 90
2002-11-27 08:41:19 51°20.537 3°0.774 11.4 202 5.2 101360 90
2002-11-27 08:41:24 51°20.544 3°0.802 11.6 197 5.2 101370 90
2002-11-27 08:41:29 51°20.551 3°0.83 10.2 199 5.2 101360 90
2002-11-27 08:41:33 51°20.557 3°0.851 11.2 201 5.2 101360 90
2002-11-27 08:41:39 51°20.567 3°0.884 10.6 203 5.2 101360 90
2002-11-27 08:41:43 51°20.573 3°0.906 10.6 201 5.2 101360 90
2002-11-27 08:41:49 51°20.583 3°0.939 10 195 5.2 101360 90
2002-11-27 08:41:53 51°20.589 3°0.96 10.7 196 5.2 101360 90
2002-11-27 08:41:59 51°20.599 3°0.993 11 200 5.2 101360 90
2002-11-27 08:42:03 51°20.605 3°1.015 10.1 191 5.2 101360 90
2002-11-27 08:42:09 51°20.615 3°1.047 9.5 193 5.2 101360 90
2002-11-27 08:42:13 51°20.621 3°1.069 10.5 196 5.1 101360 90
2002-11-27 08:42:19 51°20.63 3°1.102 10.5 198 5.1 101360 90
2002-11-27 08:42:24 51°20.638 3°1.13 11.3 200 5.1 101360 90
2002-11-27 08:42:29 51°20.646 3°1.157 10.6 197 5.1 101360 90
2002-11-27 08:42:33 51°20.652 3°1.179 11.5 197 5.2 101350 90
2002-11-27 08:42:39 51°20.661 3°1.212 10.8 195 5.2 101350 90
2002-11-27 08:42:43 51°20.668 3°1.234 11.3 197 5.2 101350 90
2002-11-27 08:42:49 51°20.678 3°1.267 11.3 196 5.1 101350 90
2002-11-27 08:42:53 51°20.684 3°1.289 10.5 197 5.1 101350 90
2002-11-27 08:42:59 51°20.694 3°1.322 11.6 193 5.1 101350 90
2002-11-27 08:43:04 51°20.701 3°1.349 11.6 192 5.1 101350 90
2002-11-27 08:43:09 51°20.709 3°1.377 10 193 5.1 101350 90
2002-11-27 08:43:13 51°20.715 3°1.399 10.5 196 5.1 101350 90
2002-11-27 08:43:19 51°20.723 3°1.431 11.4 196 5.1 101350 90
2002-11-27 08:43:24 51°20.73 3°1.459 10.8 197 5.1 101350 90
2002-11-27 08:43:29 51°20.737 3°1.487 11.5 196 5.2 101350 90
2002-11-27 08:43:33 51°20.743 3°1.51 11.1 198 5.2 101350 90
2002-11-27 08:43:39 51°20.751 3°1.544 10.7 198 5.2 101350 90
2002-11-27 08:43:44 51°20.758 3°1.573 11.9 198 5.2 101350 90
2002-11-27 08:43:49 51°20.766 3°1.601 10.7 197 5.2 101350 90
2002-11-27 08:43:53 51°20.771 3°1.624 10.4 199 5.2 101350 90
2002-11-27 08:43:59 51°20.779 3°1.658 11.1 201 5.2 101350 90
2002-11-27 08:44:04 51°20.786 3°1.686 11.2 200 5.2 101350 90
2002-11-27 08:44:09 51°20.793 3°1.713 11 194 5.2 101350 90
2002-11-27 08:44:13 51°20.798 3°1.736 10.4 199 5.2 101350 90
2002-11-27 08:44:19 51°20.807 3°1.77 11.4 199 5.2 101350 90
2002-11-27 08:44:24 51°20.813 3°1.798 11 201 5.2 101360 90
2002-11-27 08:44:29 51°20.82 3°1.825 10.7 199 5.2 101350 90
2002-11-27 08:44:33 51°20.826 3°1.848 11.6 201 5.2 101350 90
2002-11-27 08:44:39 51°20.833 3°1.882 11.4 200 5.2 101350 90
2002-11-27 08:44:43 51°20.839 3°1.904 10.6 202 5.2 101360 90
2002-11-27 08:44:49 51°20.847 3°1.937 10.4 202 5.2 101360 90
2002-11-27 08:44:53 51°20.853 3°1.96 10.8 200 5.2 101360 90
2002-11-27 08:44:59 51°20.862 3°1.993 11.5 201 5.2 101360 90
2002-11-27 08:45:04 51°20.869 3°2.021 11.2 200 5.2 101360 90
2002-11-27 08:45:09 51°20.876 3°2.049 10.6 198 5.2 101360 90
2002-11-27 08:45:13 51°20.88 3°2.071 11.5 200 5.2 101360 90
2002-11-27 08:45:19 51°20.888 3°2.104 12.1 199 5.2 101360 90
2002-11-27 08:45:24 51°20.894 3°2.133 11.3 201 5.2 101360 90
2002-11-27 08:45:29 51°20.901 3°2.161 11.5 203 5.2 101360 90
2002-11-27 08:45:33 51°20.907 3°2.184 11.3 199 5.2 101350 90
2002-11-27 08:45:39 51°20.914 3°2.217 11.4 196 5.2 101360 90
2002-11-27 08:45:44 51°20.92 3°2.246 12.2 202 5.2 101360 90
2002-11-27 08:45:49 51°20.928 3°2.273 12.1 199 5.2 101360 90
2002-11-27 08:45:53 51°20.933 3°2.293 11.8 198 5.2 101360 90
2002-11-27 08:45:59 51°20.941 3°2.326 10.4 196 5.1 101350 90
2002-11-27 08:46:04 51°20.948 3°2.354 10.8 197 5.1 101350 90
2002-11-27 08:46:09 51°20.954 3°2.383 10 194 5.1 101350 90
2002-11-27 08:46:14 51°20.961 3°2.41 10.5 196 5.1 101360 90
2002-11-27 08:46:19 51°20.968 3°2.439 10.4 197 5.1 101360 90
2002-11-27 08:46:24 51°20.975 3°2.467 11.7 201 5.1 101360 90
2002-11-27 08:46:29 51°20.982 3°2.495 11.8 202 5.1 101360 90
2002-11-27 08:46:33 51°20.988 3°2.517 10.4 199 5.1 101360 90
2002-11-27 08:46:39 51°20.995 3°2.55 10.9 198 5.1 101360 90
2002-11-27 08:46:44 51°21.002 3°2.578 10 198 5.1 101350 90
2002-11-27 08:46:49 51°21.009 3°2.606 9.9 193 5.1 101360 90
2002-11-27 08:46:53 51°21.014 3°2.628 10.2 193 5.1 101360 90
2002-11-27 08:46:59 51°21.022 3°2.662 10.1 195 5.1 101350 90
2002-11-27 08:47:04 51°21.029 3°2.689 10 201 5.1 101350 90
2002-11-27 08:47:09 51°21.036 3°2.718 11 196 5.1 101350 90
2002-11-27 08:47:13 51°21.041 3°2.741 10.9 196 5.1 101360 90
2002-11-27 08:47:19 51°21.049 3°2.774 9.6 194 5.1 101360 90
2002-11-27 08:47:24 51°21.056 3°2.801 10.9 202 5.1 101360 90
2002-11-27 08:47:29 51°21.062 3°2.829 11.2 199 5.1 101360 90
2002-11-27 08:47:33 51°21.067 3°2.852 10.5 200 5.1 101370 90
2002-11-27 08:47:39 51°21.075 3°2.886 11 195 5.1 101370 90
2002-11-27 08:47:44 51°21.082 3°2.914 11.2 195 5.1 101360 90
2002-11-27 08:47:49 51°21.089 3°2.942 9.9 196 5.1 101360 90
2002-11-27 08:47:53 51°21.094 3°2.964 9.7 196 5.1 101360 90
2002-11-27 08:47:59 51°21.102 3°2.997 9.6 195 5.1 101360 90
2002-11-27 08:48:04 51°21.109 3°3.025 9.8 200 5.1 101360 90
2002-11-27 08:48:09 51°21.115 3°3.052 11.3 196 5.1 101360 90
2002-11-27 08:48:13 51°21.121 3°3.074 11.3 198 5.1 101360 90
2002-11-27 08:48:19 51°21.129 3°3.108 10.9 198 5.1 101360 90
2002-11-27 08:48:24 51°21.135 3°3.137 11.4 199 5.1 101360 90
2002-11-27 08:48:29 51°21.141 3°3.166 10.7 196 5.1 101360 90
2002-11-27 08:48:33 51°21.146 3°3.189 10.3 195 5.1 101360 90
2002-11-27 08:48:39 51°21.153 3°3.223 9.8 199 5.1 101360 90
2002-11-27 08:48:44 51°21.159 3°3.251 10.5 195 5.1 101360 91
2002-11-27 08:48:49 51°21.165 3°3.28 10.6 195 5.1 101360 91
2002-11-27 08:48:53 51°21.17 3°3.303 11 203 5.1 101360 90
2002-11-27 08:48:59 51°21.177 3°3.337 10.4 200 5.1 101360 90
2002-11-27 08:49:04 51°21.184 3°3.366 11.2 200 5.1 101360 90
2002-11-27 08:49:09 51°21.19 3°3.394 10.8 201 5.1 101360 90
2002-11-27 08:49:13 51°21.196 3°3.416 10.3 199 5.1 101360 90
2002-11-27 08:49:19 51°21.203 3°3.45 11.1 195 5.1 101360 90
2002-11-27 08:49:23 51°21.208 3°3.472 10.1 199 5.1 101360 90
2002-11-27 08:49:29 51°21.216 3°3.506 10.9 198 5.1 101360 90
2002-11-27 08:49:33 51°21.221 3°3.529 12 199 5.1 101360 90
2002-11-27 08:49:39 51°21.228 3°3.563 11.1 194 5.1 101360 90
2002-11-27 08:49:44 51°21.235 3°3.591 11.5 197 5.1 101360 90
2002-11-27 08:49:49 51°21.241 3°3.619 10.6 196 5.1 101360 90
2002-11-27 08:49:54 51°21.247 3°3.647 11 197 5.1 101360 90
2002-11-27 08:49:59 51°21.253 3°3.675 12.1 197 5.1 101360 90
2002-11-27 08:50:04 51°21.26 3°3.703 12.5 194 5.2 101360 91
2002-11-27 08:50:09 51°21.266 3°3.732 10.5 194 5.1 101360 90
2002-11-27 08:50:13 51°21.271 3°3.755 10.2 193 5.1 101360 90
2002-11-27 08:50:19 51°21.279 3°3.789 11.1 197 5.1 101360 90
2002-11-27 08:50:24 51°21.285 3°3.817 12.1 197 5.2 101360 90
2002-11-27 08:50:29 51°21.291 3°3.845 11.7 197 5.2 101360 90
2002-11-27 08:50:33 51°21.295 3°3.868 10.9 197 5.2 101360 90
2002-11-27 08:50:39 51°21.303 3°3.902 10.5 193 5.2 101360 90
2002-11-27 08:50:44 51°21.309 3°3.931 11 195 5.2 101360 90
2002-11-27 08:50:49 51°21.315 3°3.96 10.5 199 5.2 101360 90
2002-11-27 08:50:53 51°21.32 3°3.982 9.7 199 5.2 101360 90
2002-11-27 08:50:59 51°21.327 3°4.016 10.9 199 5.2 101360 90
2002-11-27 08:51:04 51°21.333 3°4.045 11.4 196 5.2 101360 90
2002-11-27 08:51:09 51°21.339 3°4.073 10.4 191 5.2 101360 90
2002-11-27 08:51:13 51°21.345 3°4.096 11.9 197 5.2 101360 90
2002-11-27 08:51:19 51°21.352 3°4.13 11.2 194 5.2 101360 90
2002-11-27 08:51:24 51°21.359 3°4.158 11.6 197 5.2 101360 90
2002-11-27 08:51:29 51°21.365 3°4.187 10.1 195 5.2 101360 90
2002-11-27 08:51:33 51°21.37 3°4.209 10.5 193 5.2 101360 90
2002-11-27 08:51:39 51°21.378 3°4.244 10.7 197 5.2 101360 90
2002-11-27 08:51:44 51°21.384 3°4.272 10.7 199 5.3 101360 90
2002-11-27 08:51:49 51°21.39 3°4.301 9.6 199 5.3 101360 91
2002-11-27 08:51:53 51°21.396 3°4.323 10.8 193 5.3 101360 91
2002-11-27 08:51:59 51°21.402 3°4.357 11 203 5.3 101360 91
2002-11-27 08:52:04 51°21.408 3°4.386 11.8 196 5.3 101360 91
2002-11-27 08:52:09 51°21.415 3°4.415 11.5 199 5.4 101360 91
2002-11-27 08:52:13 51°21.42 3°4.438 11.3 197 5.4 101360 91
2002-11-27 08:52:19 51°21.427 3°4.472 11.6 200 5.4 101360 91
2002-11-27 08:52:24 51°21.433 3°4.5 12.5 202 5.4 101360 91
2002-11-27 08:52:29 51°21.439 3°4.529 11.5 202 5.4 101360 91
2002-11-27 08:52:33 51°21.443 3°4.552 11.7 210 5.4 101360 90
2002-11-27 08:52:39 51°21.45 3°4.587 10.5 205 5.4 101360 90
2002-11-27 08:52:44 51°21.456 3°4.615 11.4 202 5.4 101360 90
2002-11-27 08:52:49 51°21.462 3°4.643 11.2 198 5.5 101360 90
2002-11-27 08:52:53 51°21.467 3°4.666 12.1 200 5.5 101360 90
2002-11-27 08:52:59 51°21.474 3°4.7 11 202 5.5 101360 90
2002-11-27 08:53:04 51°21.481 3°4.729 10.7 201 5.5 101360 90
2002-11-27 08:53:09 51°21.487 3°4.757 13.2 202 5.5 101360 90
2002-11-27 08:53:13 51°21.491 3°4.78 12.2 196 5.5 101360 90
2002-11-27 08:53:19 51°21.498 3°4.814 11.8 202 5.5 101360 90
2002-11-27 08:53:23 51°21.502 3°4.837 11.5 202 5.5 101360 90
2002-11-27 08:53:29 51°21.509 3°4.871 11.3 207 5.5 101360 90
2002-11-27 08:53:33 51°21.513 3°4.894 12 203 5.5 101360 90
2002-11-27 08:53:39 51°21.52 3°4.928 12.2 200 5.5 101350 90
2002-11-27 08:53:44 51°21.527 3°4.956 11.8 202 5.5 101350 90
2002-11-27 08:53:49 51°21.533 3°4.985 11.9 206 5.5 101350 90
2002-11-27 08:53:53 51°21.538 3°5.008 12.9 207 5.5 101360 90
2002-11-27 08:53:59 51°21.545 3°5.042 12.8 209 5.6 101360 90
2002-11-27 08:54:04 51°21.551 3°5.071 12.4 207 5.6 101360 90
2002-11-27 08:54:09 51°21.556 3°5.1 13.6 205 5.6 101360 90
2002-11-27 08:54:13 51°21.561 3°5.122 14.3 201 5.6 101350 90
2002-11-27 08:54:19 51°21.567 3°5.157 11.8 207 5.6 101360 90
2002-11-27 08:54:24 51°21.573 3°5.186 12.8 201 5.6 101360 90
2002-11-27 08:54:29 51°21.578 3°5.214 11.9 200 5.6 101360 90
2002-11-27 08:54:33 51°21.583 3°5.237 12 205 5.5 101360 90
2002-11-27 08:54:39 51°21.591 3°5.271 12.7 202 5.6 101350 90
2002-11-27 08:54:44 51°21.597 3°5.299 12.8 203 5.6 101350 90
2002-11-27 08:54:49 51°21.603 3°5.327 12.1 211 5.5 101360 90
2002-11-27 08:54:53 51°21.608 3°5.35 12.2 206 5.5 101360 90
2002-11-27 08:54:59 51°21.615 3°5.384 13 207 5.5 101360 90
2002-11-27 08:55:04 51°21.62 3°5.413 12.8 203 5.5 101360 90
2002-11-27 08:55:09 51°21.626 3°5.441 13.6 203 5.5 101360 90
2002-11-27 08:55:13 51°21.63 3°5.464 12 202 5.6 101360 90
2002-11-27 08:55:19 51°21.637 3°5.499 11.4 204 5.5 101360 90
2002-11-27 08:55:24 51°21.642 3°5.527 13.6 203 5.5 101360 90
2002-11-27 08:55:29 51°21.648 3°5.556 12.4 202 5.5 101360 90
2002-11-27 08:55:33 51°21.653 3°5.578 13.3 198 5.5 101360 90
2002-11-27 08:55:39 51°21.66 3°5.612 12.1 205 5.5 101350 90
2002-11-27 08:55:44 51°21.665 3°5.64 11.4 200 5.5 101350 90
2002-11-27 08:55:49 51°21.671 3°5.669 12.2 206 5.5 101350 90
2002-11-27 08:55:53 51°21.676 3°5.691 11.7 206 5.5 101350 90
2002-11-27 08:55:59 51°21.683 3°5.725 12.5 209 5.5 101350 90
2002-11-27 08:56:04 51°21.689 3°5.754 11.8 207 5.4 101350 89
2002-11-27 08:56:09 51°21.694 3°5.782 12.2 204 5.4 101360 89
2002-11-27 08:56:13 51°21.699 3°5.805 12.1 202 5.4 101360 89
2002-11-27 08:56:19 51°21.706 3°5.839 11 203 5.4 101360 89
2002-11-27 08:56:24 51°21.711 3°5.867 12.6 201 5.4 101360 89
2002-11-27 08:56:29 51°21.717 3°5.895 11.7 206 5.3 101360 89
2002-11-27 08:56:33 51°21.722 3°5.918 12.2 206 5.3 101360 89
2002-11-27 08:56:39 51°21.729 3°5.952 11.4 206 5.3 101360 89
2002-11-27 08:56:44 51°21.735 3°5.981 11.1 204 5.3 101350 89
2002-11-27 08:56:49 51°21.741 3°6.009 11.8 201 5.3 101350 89
2002-11-27 08:56:53 51°21.746 3°6.032 11.2 200 5.3 101350 89
2002-11-27 08:56:59 51°21.753 3°6.066 11.3 205 5.3 101350 89
2002-11-27 08:57:04 51°21.758 3°6.095 11.3 207 5.3 101360 89
2002-11-27 08:57:09 51°21.763 3°6.124 13 205 5.3 101360 89
2002-11-27 08:57:13 51°21.767 3°6.147 13.7 207 5.3 101360 89
2002-11-27 08:57:19 51°21.773 3°6.182 13.5 206 5.3 101360 90
2002-11-27 08:57:23 51°21.776 3°6.205 12.9 205 5.3 101360 90
2002-11-27 08:57:29 51°21.782 3°6.24 12.1 205 5.3 101360 90
2002-11-27 08:57:33 51°21.786 3°6.263 13.4 203 5.3 101360 90
2002-11-27 08:57:39 51°21.791 3°6.298 13.2 202 5.3 101360 90
2002-11-27 08:57:44 51°21.795 3°6.327 13.3 203 5.3 101360 90
2002-11-27 08:57:49 51°21.8 3°6.356 13.8 207 5.2 101360 90
2002-11-27 08:57:53 51°21.804 3°6.379 13 201 5.2 101360 90
2002-11-27 08:57:59 51°21.809 3°6.414 12 201 5.2 101360 90
2002-11-27 08:58:04 51°21.813 3°6.443 12.9 202 5.2 101360 90
2002-11-27 08:58:09 51°21.818 3°6.472 12.6 204 5.2 101360 90
2002-11-27 08:58:13 51°21.821 3°6.495 13.3 203 5.2 101360 90
2002-11-27 08:58:19 51°21.827 3°6.53 13 204 5.2 101360 89
2002-11-27 08:58:24 51°21.832 3°6.559 12.6 203 5.2 101360 89
2002-11-27 08:58:29 51°21.836 3°6.587 12.9 198 5.2 101360 89
2002-11-27 08:58:33 51°21.84 3°6.61 13.1 201 5.1 101360 89
2002-11-27 08:58:39 51°21.845 3°6.645 12.6 202 5.1 101360 89
2002-11-27 08:58:44 51°21.85 3°6.675 12.5 203 5.1 101360 89
2002-11-27 08:58:49 51°21.855 3°6.703 12.2 197 5.1 101360 89
2002-11-27 08:58:53 51°21.858 3°6.726 12.9 203 5.1 101360 89
2002-11-27 08:58:59 51°21.864 3°6.76 13.8 201 5.1 101360 89
2002-11-27 08:59:04 51°21.868 3°6.789 12.7 199 5.1 101360 90
2002-11-27 08:59:09 51°21.873 3°6.818 13.4 203 5.2 101360 90
2002-11-27 08:59:13 51°21.877 3°6.842 13.6 202 5.2 101360 90
2002-11-27 08:59:19 51°21.882 3°6.876 13.1 198 5.1 101360 90
2002-11-27 08:59:24 51°21.887 3°6.904 12.8 200 5.1 101360 90
2002-11-27 08:59:29 51°21.892 3°6.933 11.9 197 5.1 101360 90
2002-11-27 08:59:33 51°21.896 3°6.956 13.3 201 5.1 101360 90
2002-11-27 08:59:39 51°21.902 3°6.99 13 202 5.1 101360 90
2002-11-27 08:59:44 51°21.906 3°7.019 12 202 5.1 101360 90
2002-11-27 08:59:49 51°21.911 3°7.047 12 197 5.1 101360 90
2002-11-27 08:59:53 51°21.915 3°7.07 11.9 198 5.1 101360 90
2002-11-27 08:59:59 51°21.921 3°7.104 13.1 201 5.1 101360 90
2002-11-27 09:00:04 51°21.926 3°7.132 13 202 5.1 101360 90
2002-11-27 09:00:09 51°21.93 3°7.161 12.4 200 5.1 101360 90
2002-11-27 09:00:13 51°21.933 3°7.184 11.3 201 5.1 101360 90
2002-11-27 09:00:19 51°21.938 3°7.218 12 199 5.1 101360 90
2002-11-27 09:00:24 51°21.942 3°7.247 12 201 5.1 101360 90
2002-11-27 09:00:29 51°21.947 3°7.275 12.7 201 5.1 101360 90
2002-11-27 09:00:33 51°21.95 3°7.298 12.2 198 5.1 101360 90
2002-11-27 09:00:39 51°21.954 3°7.333 12 202 5.1 101360 90
2002-11-27 09:00:44 51°21.958 3°7.362 12.7 203 5.1 101360 90
2002-11-27 09:00:49 51°21.962 3°7.391 14.5 201 5.1 101360 90
2002-11-27 09:00:53 51°21.965 3°7.414 12.1 200 5.1 101360 90
2002-11-27 09:00:59 51°21.97 3°7.448 12.4 202 5.1 101360 90
2002-11-27 09:01:04 51°21.974 3°7.477 13.7 199 5.1 101360 90
2002-11-27 09:01:09 51°21.977 3°7.506 12.3 200 5.1 101360 90
2002-11-27 09:01:13 51°21.981 3°7.529 12.7 202 5.1 101370 90
2002-11-27 09:01:19 51°21.985 3°7.563 12.6 203 5.1 101370 90
2002-11-27 09:01:24 51°21.989 3°7.593 13.5 202 5.1 101360 89
2002-11-27 09:01:29 51°21.992 3°7.621 12.8 202 5.1 101360 89
2002-11-27 09:01:33 51°21.995 3°7.644 13.2 196 5.1 101370 90
2002-11-27 09:01:39 51°22 3°7.679 12.2 198 5.1 101370 90
2002-11-27 09:01:44 51°22.004 3°7.708 12.4 201 5.1 101360 90
2002-11-27 09:01:49 51°22.008 3°7.737 12.3 200 5.1 101360 90
2002-11-27 09:01:53 51°22.011 3°7.76 12.3 203 5.1 101370 89
2002-11-27 09:01:59 51°22.016 3°7.795 12.6 204 5.1 101370 89
2002-11-27 09:02:03 51°22.019 3°7.818 13.4 204 5.1 101370 89
2002-11-27 09:02:09 51°22.023 3°7.853 12.5 200 5.1 101370 89
2002-11-27 09:02:13 51°22.026 3°7.876 11.9 203 5.1 101360 89
2002-11-27 09:02:19 51°22.029 3°7.911 11.4 202 5.1 101360 89
2002-11-27 09:02:24 51°22.033 3°7.941 11.8 205 5.1 101370 90
2002-11-27 09:02:29 51°22.037 3°7.97 12.8 201 5.1 101370 90
2002-11-27 09:02:33 51°22.041 3°7.993 12.4 203 5.1 101370 90
2002-11-27 09:02:39 51°22.045 3°8.027 13 199 5.1 101370 90
2002-11-27 09:02:44 51°22.049 3°8.056 12.8 200 5.1 101370 89
2002-11-27 09:02:49 51°22.053 3°8.085 11.9 197 5.1 101370 89
2002-11-27 09:02:53 51°22.056 3°8.109 13.6 201 5.1 101370 90
2002-11-27 09:02:59 51°22.061 3°8.143 12.7 196 5.1 101370 90
2002-11-27 09:03:04 51°22.065 3°8.172 13 195 5.1 101370 90
2002-11-27 09:03:09 51°22.069 3°8.201 11.8 197 5.1 101370 90
2002-11-27 09:03:13 51°22.072 3°8.224 13.3 197 5.1 101360 90
2002-11-27 09:03:19 51°22.078 3°8.258 11.5 193 5.1 101360 90
2002-11-27 09:03:24 51°22.081 3°8.286 11.8 198 5.1 101370 90
2002-11-27 09:03:29 51°22.085 3°8.315 13.1 200 5.1 101370 90
2002-11-27 09:03:33 51°22.088 3°8.338 12.8 197 5.1 101360 90
2002-11-27 09:03:39 51°22.093 3°8.373 12.9 197 5.1 101360 90
2002-11-27 09:03:44 51°22.096 3°8.401 13.2 196 5.1 101370 89
2002-11-27 09:03:49 51°22.1 3°8.43 11.6 198 5.1 101370 89
2002-11-27 09:03:53 51°22.103 3°8.454 12.1 200 5.1 101370 90
2002-11-27 09:03:59 51°22.107 3°8.489 12.7 202 5.1 101370 90
2002-11-27 09:04:03 51°22.109 3°8.512 12.6 202 5.1 101370 89
2002-11-27 09:04:09 51°22.113 3°8.547 13.7 198 5.1 101370 89
2002-11-27 09:04:13 51°22.116 3°8.57 12.4 197 5.1 101360 89
2002-11-27 09:04:19 51°22.121 3°8.604 11.5 200 5.1 101360 89
2002-11-27 09:04:24 51°22.124 3°8.633 13.2 200 5.2 101370 89
2002-11-27 09:04:29 51°22.128 3°8.662 12.4 196 5.2 101370 89
2002-11-27 09:04:33 51°22.131 3°8.685 11.7 203 5.1 101370 89
2002-11-27 09:04:39 51°22.135 3°8.719 12.1 198 5.1 101370 89
2002-11-27 09:04:44 51°22.139 3°8.748 12.7 200 5.1 101370 89
2002-11-27 09:04:49 51°22.142 3°8.777 11.9 194 5.1 101370 89
2002-11-27 09:04:53 51°22.146 3°8.8 11.5 200 5.1 101370 89
2002-11-27 09:04:59 51°22.15 3°8.834 13.2 200 5.1 101370 89
2002-11-27 09:05:04 51°22.154 3°8.861 12.8 197 5.1 101370 89
2002-11-27 09:05:09 51°22.158 3°8.889 11.2 200 5.1 101370 89
2002-11-27 09:05:13 51°22.161 3°8.912 11.2 196 5.1 101370 89
2002-11-27 09:05:19 51°22.165 3°8.947 11.8 202 5.1 101370 89
2002-11-27 09:05:24 51°22.168 3°8.977 11.3 191 5.2 101370 89
2002-11-27 09:05:29 51°22.172 3°9.006 12 199 5.2 101370 89
2002-11-27 09:05:33 51°22.175 3°9.028 10.5 201 5.2 101370 89
2002-11-27 09:05:39 51°22.18 3°9.062 11.8 197 5.2 101370 89
2002-11-27 09:05:44 51°22.184 3°9.091 11.8 198 5.2 101370 89
2002-11-27 09:05:49 51°22.188 3°9.119 11.8 200 5.2 101370 89
2002-11-27 09:05:53 51°22.191 3°9.142 10.7 196 5.2 101370 89
2002-11-27 09:05:59 51°22.195 3°9.176 11.7 199 5.2 101370 89
2002-11-27 09:06:04 51°22.199 3°9.205 11.4 202 5.2 101380 89
2002-11-27 09:06:09 51°22.203 3°9.233 11.4 194 5.2 101380 89
2002-11-27 09:06:13 51°22.206 3°9.255 10.7 199 5.3 101380 89
2002-11-27 09:06:19 51°22.211 3°9.289 11.8 201 5.3 101380 89
2002-11-27 09:06:24 51°22.215 3°9.317 12.4 198 5.3 101380 89
2002-11-27 09:06:29 51°22.219 3°9.346 10.8 194 5.3 101380 89
2002-11-27 09:06:33 51°22.223 3°9.368 10.3 194 5.3 101380 89
2002-11-27 09:06:39 51°22.227 3°9.402 11.8 203 5.3 101380 89
2002-11-27 09:06:44 51°22.231 3°9.431 13.4 203 5.3 101380 89